Aviation Digital Data Service (ADDS)

Output produced by METARs form (0351 UTC 19 August 2019)
found at http://www.aviationweather.gov/metar/data/
 
METAR text: EKYT 190320Z AUTO 18009KT 9999 NCD 12/11 Q1004
Conditions at: EKYT (ALBORG , DK) observed 0320 UTC 19 August 2019
Temperature: 12.0°C (54°F)
Dewpoint: 11.0°C (52°F) [RH = 94%]
Pressure (altimeter): 29.65 inches Hg (1004.0 mb)
Winds: from the S (180 degrees) at 10 MPH (9 knots; 4.6 m/s)
Visibility: 6 or more miles (10+ km)
Ceiling: at least 12,000 feet AGL
Clouds: sky clear below 12,000 feet AGL
Weather: no significant weather observed at this time

METAR text: EKYT 190250Z AUTO 19008KT 9999 NCD 12/11 Q1004
Conditions at: EKYT (ALBORG , DK) observed 0250 UTC 19 August 2019
Temperature: 12.0°C (54°F)
Dewpoint: 11.0°C (52°F) [RH = 94%]
Pressure (altimeter): 29.65 inches Hg (1004.0 mb)
Winds: from the S (190 degrees) at 9 MPH (8 knots; 4.1 m/s)
Visibility: 6 or more miles (10+ km)
Ceiling: at least 12,000 feet AGL
Clouds: sky clear below 12,000 feet AGL
Weather: no significant weather observed at this time

METAR text: EKYT 190220Z AUTO 19008KT 9999 NCD 12/11 Q1004
Conditions at: EKYT (ALBORG , DK) observed 0220 UTC 19 August 2019
Temperature: 12.0°C (54°F)
Dewpoint: 11.0°C (52°F) [RH = 94%]
Pressure (altimeter): 29.65 inches Hg (1004.0 mb)
Winds: from the S (190 degrees) at 9 MPH (8 knots; 4.1 m/s)
Visibility: 6 or more miles (10+ km)
Ceiling: at least 12,000 feet AGL
Clouds: sky clear below 12,000 feet AGL
Weather: no significant weather observed at this time

METAR text: EKYT 190150Z AUTO 19008KT 9999 NCD 12/12 Q1004
Conditions at: EKYT (ALBORG , DK) observed 0150 UTC 19 August 2019
Temperature: 12.0°C (54°F)
Dewpoint: 12.0°C (54°F) [RH = 100%]
Pressure (altimeter): 29.65 inches Hg (1004.0 mb)
Winds: from the S (190 degrees) at 9 MPH (8 knots; 4.1 m/s)
Visibility: 6 or more miles (10+ km)
Ceiling: at least 12,000 feet AGL
Clouds: sky clear below 12,000 feet AGL
Weather: no significant weather observed at this time

METAR text: EKYT 190120Z AUTO 20007KT 9999 NCD 13/12 Q1004
Conditions at: EKYT (ALBORG , DK) observed 0120 UTC 19 August 2019
Temperature: 13.0°C (55°F)
Dewpoint: 12.0°C (54°F) [RH = 94%]
Pressure (altimeter): 29.65 inches Hg (1004.0 mb)
Winds: from the SSW (200 degrees) at 8 MPH (7 knots; 3.6 m/s)
Visibility: 6 or more miles (10+ km)
Ceiling: at least 12,000 feet AGL
Clouds: sky clear below 12,000 feet AGL
Weather: no significant weather observed at this time

METAR text: EKYT 190050Z AUTO 20008KT 9999 NCD 13/12 Q1004
Conditions at: EKYT (ALBORG , DK) observed 0050 UTC 19 August 2019
Temperature: 13.0°C (55°F)
Dewpoint: 12.0°C (54°F) [RH = 94%]
Pressure (altimeter): 29.65 inches Hg (1004.0 mb)
Winds: from the SSW (200 degrees) at 9 MPH (8 knots; 4.1 m/s)
Visibility: 6 or more miles (10+ km)
Ceiling: at least 12,000 feet AGL
Clouds: sky clear below 12,000 feet AGL
Weather: no significant weather observed at this time

METAR text: EKYT 190020Z AUTO 20009KT 9999 NCD 13/12 Q1004
Conditions at: EKYT (ALBORG , DK) observed 0020 UTC 19 August 2019
Temperature: 13.0°C (55°F)
Dewpoint: 12.0°C (54°F) [RH = 94%]
Pressure (altimeter): 29.65 inches Hg (1004.0 mb)
Winds: from the SSW (200 degrees) at 10 MPH (9 knots; 4.6 m/s)
Visibility: 6 or more miles (10+ km)
Ceiling: at least 12,000 feet AGL
Clouds: sky clear below 12,000 feet AGL
Weather: no significant weather observed at this time

METAR text: EKYT 182350Z AUTO 20008KT 9999 NCD 13/12 Q1004
Conditions at: EKYT (ALBORG , DK) observed 2350 UTC 18 August 2019
Temperature: 13.0°C (55°F)
Dewpoint: 12.0°C (54°F) [RH = 94%]
Pressure (altimeter): 29.65 inches Hg (1004.0 mb)
Winds: from the SSW (200 degrees) at 9 MPH (8 knots; 4.1 m/s)
Visibility: 6 or more miles (10+ km)
Ceiling: at least 12,000 feet AGL
Clouds: sky clear below 12,000 feet AGL
Weather: no significant weather observed at this time

METAR text: EKYT 182320Z AUTO 21009KT 9999 NCD 13/13 Q1004
Conditions at: EKYT (ALBORG , DK) observed 2320 UTC 18 August 2019
Temperature: 13.0°C (55°F)
Dewpoint: 13.0°C (55°F) [RH = 100%]
Pressure (altimeter): 29.65 inches Hg (1004.0 mb)
Winds: from the SSW (210 degrees) at 10 MPH (9 knots; 4.6 m/s)
Visibility: 6 or more miles (10+ km)
Ceiling: at least 12,000 feet AGL
Clouds: sky clear below 12,000 feet AGL
Weather: no significant weather observed at this time

METAR text: EKYT 182250Z AUTO 21008KT 9999 FEW070/// 14/13 Q1003
Conditions at: EKYT (ALBORG , DK) observed 2250 UTC 18 August 2019
Temperature: 14.0°C (57°F)
Dewpoint: 13.0°C (55°F) [RH = 94%]
Pressure (altimeter): 29.62 inches Hg (1003.0 mb)
Winds: from the SSW (210 degrees) at 9 MPH (8 knots; 4.1 m/s)
Visibility: 6 or more miles (10+ km)
Ceiling: at least 12,000 feet AGL
Clouds: few clouds at 7000 feet AGL
Weather: no significant weather observed at this time

METAR text: EKYT 182220Z AUTO 21008KT 9999 FEW026/// 14/13 Q1003
Conditions at: EKYT (ALBORG , DK) observed 2220 UTC 18 August 2019
Temperature: 14.0°C (57°F)
Dewpoint: 13.0°C (55°F) [RH = 94%]
Pressure (altimeter): 29.62 inches Hg (1003.0 mb)
Winds: from the SSW (210 degrees) at 9 MPH (8 knots; 4.1 m/s)
Visibility: 6 or more miles (10+ km)
Ceiling: at least 12,000 feet AGL
Clouds: few clouds at 2600 feet AGL
Weather: no significant weather observed at this time

METAR text: EKYT 182150Z AUTO 22009KT 9999 FEW075/// 14/13 Q1003
Conditions at: EKYT (ALBORG , DK) observed 2150 UTC 18 August 2019
Temperature: 14.0°C (57°F)
Dewpoint: 13.0°C (55°F) [RH = 94%]
Pressure (altimeter): 29.62 inches Hg (1003.0 mb)
Winds: from the SW (220 degrees) at 10 MPH (9 knots; 4.6 m/s)
Visibility: 6 or more miles (10+ km)
Ceiling: at least 12,000 feet AGL
Clouds: few clouds at 7500 feet AGL
Weather: no significant weather observed at this time

METAR text: EKYT 182120Z AUTO 21008KT 9999 FEW026/// 14/14 Q1002
Conditions at: EKYT (ALBORG , DK) observed 2120 UTC 18 August 2019
Temperature: 14.0°C (57°F)
Dewpoint: 14.0°C (57°F) [RH = 100%]
Pressure (altimeter): 29.59 inches Hg (1002.0 mb)
Winds: from the SSW (210 degrees) at 9 MPH (8 knots; 4.1 m/s)
Visibility: 6 or more miles (10+ km)
Ceiling: at least 12,000 feet AGL
Clouds: few clouds at 2600 feet AGL
Weather: no significant weather observed at this time

METAR text: EKYT 182050Z AUTO 22006KT 9999 NCD 14/13 Q1002
Conditions at: EKYT (ALBORG , DK) observed 2050 UTC 18 August 2019
Temperature: 14.0°C (57°F)
Dewpoint: 13.0°C (55°F) [RH = 94%]
Pressure (altimeter): 29.59 inches Hg (1002.0 mb)
Winds: from the SW (220 degrees) at 7 MPH (6 knots; 3.1 m/s)
Visibility: 6 or more miles (10+ km)
Ceiling: at least 12,000 feet AGL
Clouds: sky clear below 12,000 feet AGL
Weather: no significant weather observed at this time

METAR text: EKYT 182020Z AUTO 22006KT 9999 FEW005/// SCT009/// BKN011/// 14/14 Q1002
Conditions at: EKYT (ALBORG , DK) observed 2020 UTC 18 August 2019
Temperature: 14.0°C (57°F)
Dewpoint: 14.0°C (57°F) [RH = 100%]
Pressure (altimeter): 29.59 inches Hg (1002.0 mb)
Winds: from the SW (220 degrees) at 7 MPH (6 knots; 3.1 m/s)
Visibility: 6 or more miles (10+ km)
Ceiling: 1100 feet AGL
Clouds: few clouds at 500 feet AGL
scattered clouds at 900 feet AGL
broken clouds at 1100 feet AGL
Weather: no significant weather observed at this time

METAR text: EKYT 182001Z AUTO 21005KT 9999 FEW008/// BKN011/// 14/14 Q1002
Conditions at: EKYT (ALBORG , DK) observed 2001 UTC 18 August 2019
Temperature: 14.0°C (57°F)
Dewpoint: 14.0°C (57°F) [RH = 100%]
Pressure (altimeter): 29.59 inches Hg (1002.0 mb)
Winds: from the SSW (210 degrees) at 6 MPH (5 knots; 2.6 m/s)
Visibility: 6 or more miles (10+ km)
Ceiling: 1100 feet AGL
Clouds: few clouds at 800 feet AGL
broken clouds at 1100 feet AGL
Weather: no significant weather observed at this time

METAR text: EKYT 181950Z AUTO 21006KT 9999 FEW012/// SCT027/// BKN065/// 14/14 Q1002
Conditions at: EKYT (ALBORG , DK) observed 1950 UTC 18 August 2019
Temperature: 14.0°C (57°F)
Dewpoint: 14.0°C (57°F) [RH = 100%]
Pressure (altimeter): 29.59 inches Hg (1002.0 mb)
Winds: from the SSW (210 degrees) at 7 MPH (6 knots; 3.1 m/s)
Visibility: 6 or more miles (10+ km)
Ceiling: 6500 feet AGL
Clouds: few clouds at 1200 feet AGL
scattered clouds at 2700 feet AGL
broken clouds at 6500 feet AGL
Weather: no significant weather observed at this time

METAR text: EKYT 181920Z AUTO 19002KT 2900 -SHRA FEW010/// SCT013/// BKN016/// BKN026/// 14/13 Q1002
Conditions at: EKYT (ALBORG , DK) observed 1920 UTC 18 August 2019
Temperature: 14.0°C (57°F)
Dewpoint: 13.0°C (55°F) [RH = 94%]
Pressure (altimeter): 29.59 inches Hg (1002.0 mb)
Winds: from the S (190 degrees) at 2 MPH (2 knots; 1.0 m/s)
Visibility: 1.80 miles (2.90 km)
Ceiling: 1600 feet AGL
Clouds: few clouds at 1000 feet AGL
scattered clouds at 1300 feet AGL
broken clouds at 1600 feet AGL
broken clouds at 2600 feet AGL
Weather: -SHRA  (light rain showers)

METAR text: EKYT 181916Z AUTO 21001KT 2900 -SHRA FEW010/// SCT013/// BKN016/// BKN026/// 14/13 Q1002
Conditions at: EKYT (ALBORG , DK) observed 1916 UTC 18 August 2019
Temperature: 14.0°C (57°F)
Dewpoint: 13.0°C (55°F) [RH = 94%]
Pressure (altimeter): 29.59 inches Hg (1002.0 mb)
Winds: from the SSW (210 degrees) at 1 MPH (1 knots; 0.5 m/s)
Visibility: 1.80 miles (2.90 km)
Ceiling: 1600 feet AGL
Clouds: few clouds at 1000 feet AGL
scattered clouds at 1300 feet AGL
broken clouds at 1600 feet AGL
broken clouds at 2600 feet AGL
Weather: -SHRA  (light rain showers)

METAR text: EKYT 181911Z AUTO 25001KT 3100 -SHRA BR FEW010/// BKN013/// BKN019/// 14/13 Q1002
Conditions at: EKYT (ALBORG , DK) observed 1911 UTC 18 August 2019
Temperature: 14.0°C (57°F)
Dewpoint: 13.0°C (55°F) [RH = 94%]
Pressure (altimeter): 29.59 inches Hg (1002.0 mb)
Winds: from the WSW (250 degrees) at 1 MPH (1 knots; 0.5 m/s)
Visibility: 1.93 miles (3.11 km)
Ceiling: 1300 feet AGL
Clouds: few clouds at 1000 feet AGL
broken clouds at 1300 feet AGL
broken clouds at 1900 feet AGL
Weather: -SHRA BR  (light rain showers, mist)

METAR text: EKYT 181904Z AUTO 31001KT 2900 -SHRA BR SCT012/// BKN016/// BKN020/// 14/13 Q1002
Conditions at: EKYT (ALBORG , DK) observed 1904 UTC 18 August 2019
Temperature: 14.0°C (57°F)
Dewpoint: 13.0°C (55°F) [RH = 94%]
Pressure (altimeter): 29.59 inches Hg (1002.0 mb)
Winds: from the NW (310 degrees) at 1 MPH (1 knots; 0.5 m/s)
Visibility: 1.80 miles (2.90 km)
Ceiling: 1600 feet AGL
Clouds: scattered clouds at 1200 feet AGL
broken clouds at 1600 feet AGL
broken clouds at 2000 feet AGL
Weather: -SHRA BR  (light rain showers, mist)

METAR text: EKYT 181850Z AUTO 19002KT 2900 -SHRA BR SCT011/// BKN016/// 14/13 Q1002
Conditions at: EKYT (ALBORG , DK) observed 1850 UTC 18 August 2019
Temperature: 14.0°C (57°F)
Dewpoint: 13.0°C (55°F) [RH = 94%]
Pressure (altimeter): 29.59 inches Hg (1002.0 mb)
Winds: from the S (190 degrees) at 2 MPH (2 knots; 1.0 m/s)
Visibility: 1.80 miles (2.90 km)
Ceiling: 1600 feet AGL
Clouds: scattered clouds at 1100 feet AGL
broken clouds at 1600 feet AGL
Weather: -SHRA BR  (light rain showers, mist)

METAR text: EKYT 181821Z AUTO 16003KT 2900 -SHRA BR FEW015/// BKN018/// BKN037/// 14/13 Q1002
Conditions at: EKYT (ALBORG , DK) observed 1821 UTC 18 August 2019
Temperature: 14.0°C (57°F)
Dewpoint: 13.0°C (55°F) [RH = 94%]
Pressure (altimeter): 29.59 inches Hg (1002.0 mb)
Winds: from the SSE (160 degrees) at 3 MPH (3 knots; 1.5 m/s)
Visibility: 1.80 miles (2.90 km)
Ceiling: 1800 feet AGL
Clouds: few clouds at 1500 feet AGL
broken clouds at 1800 feet AGL
broken clouds at 3700 feet AGL
Weather: -SHRA BR  (light rain showers, mist)

METAR text: EKYT 181820Z AUTO 16003KT 3100 -SHRA BR FEW017/// BKN020/// BKN037/// 14/13 Q1002
Conditions at: EKYT (ALBORG , DK) observed 1820 UTC 18 August 2019
Temperature: 14.0°C (57°F)
Dewpoint: 13.0°C (55°F) [RH = 94%]
Pressure (altimeter): 29.59 inches Hg (1002.0 mb)
Winds: from the SSE (160 degrees) at 3 MPH (3 knots; 1.5 m/s)
Visibility: 1.93 miles (3.11 km)
Ceiling: 2000 feet AGL
Clouds: few clouds at 1700 feet AGL
broken clouds at 2000 feet AGL
broken clouds at 3700 feet AGL
Weather: -SHRA BR  (light rain showers, mist)

METAR text: EKYT 181815Z AUTO 15004KT 4800 -SHRA BR SCT019/// BKN027/// BKN037/// 14/13 Q1002
Conditions at: EKYT (ALBORG , DK) observed 1815 UTC 18 August 2019
Temperature: 14.0°C (57°F)
Dewpoint: 13.0°C (55°F) [RH = 94%]
Pressure (altimeter): 29.59 inches Hg (1002.0 mb)
Winds: from the SSE (150 degrees) at 5 MPH (4 knots; 2.1 m/s)
Visibility: 2.98 miles (4.80 km)
Ceiling: 2700 feet AGL
Clouds: scattered clouds at 1900 feet AGL
broken clouds at 2700 feet AGL
broken clouds at 3700 feet AGL
Weather: -SHRA BR  (light rain showers, mist)

METAR text: EKYT 181750Z AUTO 18005KT 150V210 4200 RA FEW028/// SCT039/// BKN050/// BKN065/// 14/13 Q1001
Conditions at: EKYT (ALBORG , DK) observed 1750 UTC 18 August 2019
Temperature: 14.0°C (57°F)
Dewpoint: 13.0°C (55°F) [RH = 94%]
Pressure (altimeter): 29.56 inches Hg (1001.0 mb)
Winds: from the S (180 degrees) at 6 MPH (5 knots; 2.6 m/s)
Visibility: 2.61 miles (4.20 km)
Ceiling: 5000 feet AGL
Clouds: few clouds at 2800 feet AGL
scattered clouds at 3900 feet AGL
broken clouds at 5000 feet AGL
broken clouds at 6500 feet AGL
Weather: RA  (moderate rain)

METAR text: EKYT 181748Z AUTO 18005KT 4800 RA FEW028/// SCT039/// BKN050/// BKN065/// 14/13 Q1001
Conditions at: EKYT (ALBORG , DK) observed 1748 UTC 18 August 2019
Temperature: 14.0°C (57°F)
Dewpoint: 13.0°C (55°F) [RH = 94%]
Pressure (altimeter): 29.56 inches Hg (1001.0 mb)
Winds: from the S (180 degrees) at 6 MPH (5 knots; 2.6 m/s)
Visibility: 2.98 miles (4.80 km)
Ceiling: 5000 feet AGL
Clouds: few clouds at 2800 feet AGL
scattered clouds at 3900 feet AGL
broken clouds at 5000 feet AGL
broken clouds at 6500 feet AGL
Weather: RA  (moderate rain)

METAR text: EKYT 181747Z AUTO 18005KT 4800 RA FEW028/// SCT039/// BKN050/// BKN065/// 14/13 Q1001
Conditions at: EKYT (ALBORG , DK) observed 1747 UTC 18 August 2019
Temperature: 14.0°C (57°F)
Dewpoint: 13.0°C (55°F) [RH = 94%]
Pressure (altimeter): 29.56 inches Hg (1001.0 mb)
Winds: from the S (180 degrees) at 6 MPH (5 knots; 2.6 m/s)
Visibility: 2.98 miles (4.80 km)
Ceiling: 5000 feet AGL
Clouds: few clouds at 2800 feet AGL
scattered clouds at 3900 feet AGL
broken clouds at 5000 feet AGL
broken clouds at 6500 feet AGL
Weather: RA  (moderate rain)

METAR text: EKYT 181746Z AUTO 17005KT 5000 RA FEW035/// BKN046/// OVC065/// 14/13 Q1001
Conditions at: EKYT (ALBORG , DK) observed 1746 UTC 18 August 2019
Temperature: 14.0°C (57°F)
Dewpoint: 13.0°C (55°F) [RH = 94%]
Pressure (altimeter): 29.56 inches Hg (1001.0 mb)
Winds: from the S (170 degrees) at 6 MPH (5 knots; 2.6 m/s)
Visibility: 3 miles ( 5 km)
Ceiling: 4600 feet AGL
Clouds: few clouds at 3500 feet AGL
broken clouds at 4600 feet AGL
overcast cloud deck at 6500 feet AGL
Weather: RA  (moderate rain)

METAR text: EKYT 181745Z AUTO 17005KT 5000 RA FEW035/// BKN046/// OVC065/// 14/13 Q1001
Conditions at: EKYT (ALBORG , DK) observed 1745 UTC 18 August 2019
Temperature: 14.0°C (57°F)
Dewpoint: 13.0°C (55°F) [RH = 94%]
Pressure (altimeter): 29.56 inches Hg (1001.0 mb)
Winds: from the S (170 degrees) at 6 MPH (5 knots; 2.6 m/s)
Visibility: 3 miles ( 5 km)
Ceiling: 4600 feet AGL
Clouds: few clouds at 3500 feet AGL
broken clouds at 4600 feet AGL
overcast cloud deck at 6500 feet AGL
Weather: RA  (moderate rain)

METAR text: EKYT 181720Z AUTO 17007KT 9999 -SHRA FEW012/// BKN048/// BKN070/// 14/13 Q1001
Conditions at: EKYT (ALBORG , DK) observed 1720 UTC 18 August 2019
Temperature: 14.0°C (57°F)
Dewpoint: 13.0°C (55°F) [RH = 94%]
Pressure (altimeter): 29.56 inches Hg (1001.0 mb)
Winds: from the S (170 degrees) at 8 MPH (7 knots; 3.6 m/s)
Visibility: 6 or more miles (10+ km)
Ceiling: 4800 feet AGL
Clouds: few clouds at 1200 feet AGL
broken clouds at 4800 feet AGL
broken clouds at 7000 feet AGL
Weather: -SHRA  (light rain showers)

METAR text: EKYT 181650Z AUTO 12003KT 9999 -SHRA FEW007/// SCT011/// BKN023/// BKN080/// 15/15 Q1001
Conditions at: EKYT (ALBORG , DK) observed 1650 UTC 18 August 2019
Temperature: 15.0°C (59°F)
Dewpoint: 15.0°C (59°F) [RH = 100%]
Pressure (altimeter): 29.56 inches Hg (1001.0 mb)
Winds: from the ESE (120 degrees) at 3 MPH (3 knots; 1.5 m/s)
Visibility: 6 or more miles (10+ km)
Ceiling: 2300 feet AGL
Clouds: few clouds at 700 feet AGL
scattered clouds at 1100 feet AGL
broken clouds at 2300 feet AGL
broken clouds at 8000 feet AGL
Weather: -SHRA  (light rain showers)

METAR text: EKYT 181645Z AUTO 11003KT 9999 -SHRA FEW007/// SCT010/// BKN018/// BKN080/// 15/15 Q1001
Conditions at: EKYT (ALBORG , DK) observed 1645 UTC 18 August 2019
Temperature: 15.0°C (59°F)
Dewpoint: 15.0°C (59°F) [RH = 100%]
Pressure (altimeter): 29.56 inches Hg (1001.0 mb)
Winds: from the ESE (110 degrees) at 3 MPH (3 knots; 1.5 m/s)
Visibility: 6 or more miles (10+ km)
Ceiling: 1800 feet AGL
Clouds: few clouds at 700 feet AGL
scattered clouds at 1000 feet AGL
broken clouds at 1800 feet AGL
broken clouds at 8000 feet AGL
Weather: -SHRA  (light rain showers)

METAR text: EKYT 181620Z AUTO 09004KT 6000 -RA FEW008/// SCT011/// BKN065/// BKN080/// 15/15 Q1002
Conditions at: EKYT (ALBORG , DK) observed 1620 UTC 18 August 2019
Temperature: 15.0°C (59°F)
Dewpoint: 15.0°C (59°F) [RH = 100%]
Pressure (altimeter): 29.59 inches Hg (1002.0 mb)
Winds: from the E (90 degrees) at 5 MPH (4 knots; 2.1 m/s)
Visibility: 4 miles ( 6 km)
Ceiling: 6500 feet AGL
Clouds: few clouds at 800 feet AGL
scattered clouds at 1100 feet AGL
broken clouds at 6500 feet AGL
broken clouds at 8000 feet AGL
Weather: -RA  (light rain)

METAR text: EKYT 181550Z AUTO 10006KT 7000 -RA FEW031/// BKN050/// BKN085/// 15/15 Q1002
Conditions at: EKYT (ALBORG , DK) observed 1550 UTC 18 August 2019
Temperature: 15.0°C (59°F)
Dewpoint: 15.0°C (59°F) [RH = 100%]
Pressure (altimeter): 29.59 inches Hg (1002.0 mb)
Winds: from the E (100 degrees) at 7 MPH (6 knots; 3.1 m/s)
Visibility: 4 miles ( 7 km)
Ceiling: 5000 feet AGL
Clouds: few clouds at 3100 feet AGL
broken clouds at 5000 feet AGL
broken clouds at 8500 feet AGL
Weather: -RA  (light rain)

METAR text: EKYT 181520Z AUTO 10005KT 9999 -RA FEW045/// BKN065/// BKN080/// 15/14 Q1002
Conditions at: EKYT (ALBORG , DK) observed 1520 UTC 18 August 2019
Temperature: 15.0°C (59°F)
Dewpoint: 14.0°C (57°F) [RH = 94%]
Pressure (altimeter): 29.59 inches Hg (1002.0 mb)
Winds: from the E (100 degrees) at 6 MPH (5 knots; 2.6 m/s)
Visibility: 6 or more miles (10+ km)
Ceiling: 6500 feet AGL
Clouds: few clouds at 4500 feet AGL
broken clouds at 6500 feet AGL
broken clouds at 8000 feet AGL
Weather: -RA  (light rain)

METAR text: EKYT 181450Z AUTO 12006KT 9999 -RA FEW039/// SCT065/// BKN080/// 15/14 Q1002
Conditions at: EKYT (ALBORG , DK) observed 1450 UTC 18 August 2019
Temperature: 15.0°C (59°F)
Dewpoint: 14.0°C (57°F) [RH = 94%]
Pressure (altimeter): 29.59 inches Hg (1002.0 mb)
Winds: from the ESE (120 degrees) at 7 MPH (6 knots; 3.1 m/s)
Visibility: 6 or more miles (10+ km)
Ceiling: 8000 feet AGL
Clouds: few clouds at 3900 feet AGL
scattered clouds at 6500 feet AGL
broken clouds at 8000 feet AGL
Weather: -RA  (light rain)

METAR text: EKYT 181420Z 10007KT 9999 -SHRA NSC 15/14 Q1002
Conditions at: EKYT (ALBORG , DK) observed 1420 UTC 18 August 2019
Temperature: 15.0°C (59°F)
Dewpoint: 14.0°C (57°F) [RH = 94%]
Pressure (altimeter): 29.59 inches Hg (1002.0 mb)
Winds: from the E (100 degrees) at 8 MPH (7 knots; 3.6 m/s)
Visibility: 6 or more miles (10+ km)
Ceiling: at least 12,000 feet AGL
Clouds: sky clear below 12,000 feet AGL
Weather: -SHRA  (light rain showers)

METAR text: EKYT 181419Z 11008KT 9999 -SHRA NSC 15/14 Q1002
Conditions at: EKYT (ALBORG , DK) observed 1419 UTC 18 August 2019
Temperature: 15.0°C (59°F)
Dewpoint: 14.0°C (57°F) [RH = 94%]
Pressure (altimeter): 29.59 inches Hg (1002.0 mb)
Winds: from the ESE (110 degrees) at 9 MPH (8 knots; 4.1 m/s)
Visibility: 6 or more miles (10+ km)
Ceiling: at least 12,000 feet AGL
Clouds: sky clear below 12,000 feet AGL
Weather: -SHRA  (light rain showers)

METAR text: EKYT 181350Z 10006KT 9999 -SHRA SCT032TCU SCT090 15/14 Q1002
Conditions at: EKYT (ALBORG , DK) observed 1350 UTC 18 August 2019
Temperature: 15.0°C (59°F)
Dewpoint: 14.0°C (57°F) [RH = 94%]
Pressure (altimeter): 29.59 inches Hg (1002.0 mb)
Winds: from the E (100 degrees) at 7 MPH (6 knots; 3.1 m/s)
Visibility: 6 or more miles (10+ km)
Ceiling: at least 12,000 feet AGL
Clouds: scattered clouds at 3200 feet AGL
scattered clouds at 9000 feet AGL
Weather: -SHRA  (light rain showers)

METAR text: EKYT 181320Z AUTO 11007KT 9999 -SHRA FEW036/// BKN050/// BKN070/// 16/15 Q1002
Conditions at: EKYT (ALBORG , DK) observed 1320 UTC 18 August 2019
Temperature: 16.0°C (61°F)
Dewpoint: 15.0°C (59°F) [RH = 94%]
Pressure (altimeter): 29.59 inches Hg (1002.0 mb)
Winds: from the ESE (110 degrees) at 8 MPH (7 knots; 3.6 m/s)
Visibility: 6 or more miles (10+ km)
Ceiling: 5000 feet AGL
Clouds: few clouds at 3600 feet AGL
broken clouds at 5000 feet AGL
broken clouds at 7000 feet AGL
Weather: -SHRA  (light rain showers)

METAR text: EKYT 181250Z AUTO 10007KT 9999 -SHRA FEW041/// BKN065/// BKN080/// 16/15 Q1002
Conditions at: EKYT (ALBORG , DK) observed 1250 UTC 18 August 2019
Temperature: 16.0°C (61°F)
Dewpoint: 15.0°C (59°F) [RH = 94%]
Pressure (altimeter): 29.59 inches Hg (1002.0 mb)
Winds: from the E (100 degrees) at 8 MPH (7 knots; 3.6 m/s)
Visibility: 6 or more miles (10+ km)
Ceiling: 6500 feet AGL
Clouds: few clouds at 4100 feet AGL
broken clouds at 6500 feet AGL
broken clouds at 8000 feet AGL
Weather: -SHRA  (light rain showers)

METAR text: EKYT 181220Z AUTO 13005KT 9999 -SHRA FEW038/// BKN080/// BKN095/// 16/15 Q1002
Conditions at: EKYT (ALBORG , DK) observed 1220 UTC 18 August 2019
Temperature: 16.0°C (61°F)
Dewpoint: 15.0°C (59°F) [RH = 94%]
Pressure (altimeter): 29.59 inches Hg (1002.0 mb)
Winds: from the SE (130 degrees) at 6 MPH (5 knots; 2.6 m/s)
Visibility: 6 or more miles (10+ km)
Ceiling: 8000 feet AGL
Clouds: few clouds at 3800 feet AGL
broken clouds at 8000 feet AGL
broken clouds at 9500 feet AGL
Weather: -SHRA  (light rain showers)

METAR text: EKYT 181150Z 15006KT 9999 -SHRA SCT025TCU SCT050 16/15 Q1002
Conditions at: EKYT (ALBORG , DK) observed 1150 UTC 18 August 2019
Temperature: 16.0°C (61°F)
Dewpoint: 15.0°C (59°F) [RH = 94%]
Pressure (altimeter): 29.59 inches Hg (1002.0 mb)
Winds: from the SSE (150 degrees) at 7 MPH (6 knots; 3.1 m/s)
Visibility: 6 or more miles (10+ km)
Ceiling: at least 12,000 feet AGL
Clouds: scattered clouds at 2500 feet AGL
scattered clouds at 5000 feet AGL
Weather: -SHRA  (light rain showers)

METAR text: EKYT 181127Z 16007KT 130V200 9999 -SHRA SCT025TCU SCT050 16/15 Q1002
Conditions at: EKYT (ALBORG , DK) observed 1127 UTC 18 August 2019
Temperature: 16.0°C (61°F)
Dewpoint: 15.0°C (59°F) [RH = 94%]
Pressure (altimeter): 29.59 inches Hg (1002.0 mb)
Winds: from the SSE (160 degrees) at 8 MPH (7 knots; 3.6 m/s)
Visibility: 6 or more miles (10+ km)
Ceiling: at least 12,000 feet AGL
Clouds: scattered clouds at 2500 feet AGL
scattered clouds at 5000 feet AGL
Weather: -SHRA  (light rain showers)

METAR text: EKYT 181120Z 15006KT 120V180 9999 SHRA SCT025TCU SCT050 16/14 Q1002
Conditions at: EKYT (ALBORG , DK) observed 1120 UTC 18 August 2019
Temperature: 16.0°C (61°F)
Dewpoint: 14.0°C (57°F) [RH = 88%]
Pressure (altimeter): 29.59 inches Hg (1002.0 mb)
Winds: from the SSE (150 degrees) at 7 MPH (6 knots; 3.1 m/s)
Visibility: 6 or more miles (10+ km)
Ceiling: at least 12,000 feet AGL
Clouds: scattered clouds at 2500 feet AGL
scattered clouds at 5000 feet AGL
Weather: SHRA  (rain showers)

METAR text: EKYT 181106Z 22004KT 160V250 9999 SHRA SCT025TCU SCT050 15/14 Q1003 VI TS
Conditions at: EKYT (ALBORG , DK) observed 1106 UTC 18 August 2019
Temperature: 15.0°C (59°F)
Dewpoint: 14.0°C (57°F) [RH = 94%]
Pressure (altimeter): 29.62 inches Hg (1003.0 mb)
Winds: from the SW (220 degrees) at 5 MPH (4 knots; 2.1 m/s)
Visibility: 6 or more miles (10+ km)
Ceiling: at least 12,000 feet AGL
Clouds: scattered clouds at 2500 feet AGL
scattered clouds at 5000 feet AGL
Weather: SHRA TS  (rain showers, thunderstorm)

METAR text: EKYT 181050Z 26006KT 9999 -SHRA SCT025TCU SCT050 15/14 Q1003
Conditions at: EKYT (ALBORG , DK) observed 1050 UTC 18 August 2019
Temperature: 15.0°C (59°F)
Dewpoint: 14.0°C (57°F) [RH = 94%]
Pressure (altimeter): 29.62 inches Hg (1003.0 mb)
Winds: from the W (260 degrees) at 7 MPH (6 knots; 3.1 m/s)
Visibility: 6 or more miles (10+ km)
Ceiling: at least 12,000 feet AGL
Clouds: scattered clouds at 2500 feet AGL
scattered clouds at 5000 feet AGL
Weather: -SHRA  (light rain showers)

METAR text: EKYT 181046Z 26005KT 9999 -SHRA SCT050TCU 16/14 Q1003
Conditions at: EKYT (ALBORG , DK) observed 1046 UTC 18 August 2019
Temperature: 16.0°C (61°F)
Dewpoint: 14.0°C (57°F) [RH = 88%]
Pressure (altimeter): 29.62 inches Hg (1003.0 mb)
Winds: from the W (260 degrees) at 6 MPH (5 knots; 2.6 m/s)
Visibility: 6 or more miles (10+ km)
Ceiling: at least 12,000 feet AGL
Clouds: scattered clouds at 5000 feet AGL
Weather: -SHRA  (light rain showers)

METAR text: EKYT 181020Z AUTO 20006KT 160V230 9000 RA FEW041/// BKN060/// 15/14 Q1003
Conditions at: EKYT (ALBORG , DK) observed 1020 UTC 18 August 2019
Temperature: 15.0°C (59°F)
Dewpoint: 14.0°C (57°F) [RH = 94%]
Pressure (altimeter): 29.62 inches Hg (1003.0 mb)
Winds: from the SSW (200 degrees) at 7 MPH (6 knots; 3.1 m/s)
Visibility: 6 miles ( 9 km)
Ceiling: 6000 feet AGL
Clouds: few clouds at 4100 feet AGL
broken clouds at 6000 feet AGL
Weather: RA  (moderate rain)

METAR text: EKYT 180950Z AUTO 15007KT 6000 RA FEW037/// BKN055/// 16/15 Q1003
Conditions at: EKYT (ALBORG , DK) observed 0950 UTC 18 August 2019
Temperature: 16.0°C (61°F)
Dewpoint: 15.0°C (59°F) [RH = 94%]
Pressure (altimeter): 29.62 inches Hg (1003.0 mb)
Winds: from the SSE (150 degrees) at 8 MPH (7 knots; 3.6 m/s)
Visibility: 4 miles ( 6 km)
Ceiling: 5500 feet AGL
Clouds: few clouds at 3700 feet AGL
broken clouds at 5500 feet AGL
Weather: RA  (moderate rain)

METAR text: EKYT 180926Z 17005KT 9999 -SHRA SCT050TCU 16/15 Q1003
Conditions at: EKYT (ALBORG , DK) observed 0926 UTC 18 August 2019
Temperature: 16.0°C (61°F)
Dewpoint: 15.0°C (59°F) [RH = 94%]
Pressure (altimeter): 29.62 inches Hg (1003.0 mb)
Winds: from the S (170 degrees) at 6 MPH (5 knots; 2.6 m/s)
Visibility: 6 or more miles (10+ km)
Ceiling: at least 12,000 feet AGL
Clouds: scattered clouds at 5000 feet AGL
Weather: -SHRA  (light rain showers)

METAR text: EKYT 180920Z AUTO 17005KT 9999 -RA SCT050/// BKN070/// 16/15 Q1003
Conditions at: EKYT (ALBORG , DK) observed 0920 UTC 18 August 2019
Temperature: 16.0°C (61°F)
Dewpoint: 15.0°C (59°F) [RH = 94%]
Pressure (altimeter): 29.62 inches Hg (1003.0 mb)
Winds: from the S (170 degrees) at 6 MPH (5 knots; 2.6 m/s)
Visibility: 6 or more miles (10+ km)
Ceiling: 7000 feet AGL
Clouds: scattered clouds at 5000 feet AGL
broken clouds at 7000 feet AGL
Weather: -RA  (light rain)

METAR text: EKYT 180911Z 17006KT 9999 -SHRA SCT050TCU 16/15 Q1003
Conditions at: EKYT (ALBORG , DK) observed 0911 UTC 18 August 2019
Temperature: 16.0°C (61°F)
Dewpoint: 15.0°C (59°F) [RH = 94%]
Pressure (altimeter): 29.62 inches Hg (1003.0 mb)
Winds: from the S (170 degrees) at 7 MPH (6 knots; 3.1 m/s)
Visibility: 6 or more miles (10+ km)
Ceiling: at least 12,000 feet AGL
Clouds: scattered clouds at 5000 feet AGL
Weather: -SHRA  (light rain showers)

METAR text: EKYT 180850Z AUTO 17005KT 9999 BKN070/// 16/15 Q1003
Conditions at: EKYT (ALBORG , DK) observed 0850 UTC 18 August 2019
Temperature: 16.0°C (61°F)
Dewpoint: 15.0°C (59°F) [RH = 94%]
Pressure (altimeter): 29.62 inches Hg (1003.0 mb)
Winds: from the S (170 degrees) at 6 MPH (5 knots; 2.6 m/s)
Visibility: 6 or more miles (10+ km)
Ceiling: 7000 feet AGL
Clouds: broken clouds at 7000 feet AGL
Weather: no significant weather observed at this time

METAR text: EKYT 180820Z AUTO 16004KT 130V190 9999 BKN075/// 16/15 Q1003
Conditions at: EKYT (ALBORG , DK) observed 0820 UTC 18 August 2019
Temperature: 16.0°C (61°F)
Dewpoint: 15.0°C (59°F) [RH = 94%]
Pressure (altimeter): 29.62 inches Hg (1003.0 mb)
Winds: from the SSE (160 degrees) at 5 MPH (4 knots; 2.1 m/s)
Visibility: 6 or more miles (10+ km)
Ceiling: 7500 feet AGL
Clouds: broken clouds at 7500 feet AGL
Weather: no significant weather observed at this time

METAR text: EKYT 180750Z AUTO 17005KT 9999 BKN080/// 15/15 Q1003
Conditions at: EKYT (ALBORG , DK) observed 0750 UTC 18 August 2019
Temperature: 15.0°C (59°F)
Dewpoint: 15.0°C (59°F) [RH = 100%]
Pressure (altimeter): 29.62 inches Hg (1003.0 mb)
Winds: from the S (170 degrees) at 6 MPH (5 knots; 2.6 m/s)
Visibility: 6 or more miles (10+ km)
Ceiling: 8000 feet AGL
Clouds: broken clouds at 8000 feet AGL
Weather: no significant weather observed at this time

METAR text: EKYT 180720Z AUTO 18006KT 9999 SCT080/// BKN170/// 15/15 Q1003
Conditions at: EKYT (ALBORG , DK) observed 0720 UTC 18 August 2019
Temperature: 15.0°C (59°F)
Dewpoint: 15.0°C (59°F) [RH = 100%]
Pressure (altimeter): 29.62 inches Hg (1003.0 mb)
Winds: from the S (180 degrees) at 7 MPH (6 knots; 3.1 m/s)
Visibility: 6 or more miles (10+ km)
Ceiling: 17000 feet AGL
Clouds: scattered clouds at 8000 feet AGL
broken clouds at 17000 feet AGL
Weather: no significant weather observed at this time

METAR text: EKYT 180650Z AUTO 18005KT 9999 BKN170/// 15/14 Q1003
Conditions at: EKYT (ALBORG , DK) observed 0650 UTC 18 August 2019
Temperature: 15.0°C (59°F)
Dewpoint: 14.0°C (57°F) [RH = 94%]
Pressure (altimeter): 29.62 inches Hg (1003.0 mb)
Winds: from the S (180 degrees) at 6 MPH (5 knots; 2.6 m/s)
Visibility: 6 or more miles (10+ km)
Ceiling: 17000 feet AGL
Clouds: broken clouds at 17000 feet AGL
Weather: no significant weather observed at this time

METAR text: EKYT 180620Z AUTO 14004KT 9999 SCT190/// 15/14 Q1003
Conditions at: EKYT (ALBORG , DK) observed 0620 UTC 18 August 2019
Temperature: 15.0°C (59°F)
Dewpoint: 14.0°C (57°F) [RH = 94%]
Pressure (altimeter): 29.62 inches Hg (1003.0 mb)
Winds: from the SE (140 degrees) at 5 MPH (4 knots; 2.1 m/s)
Visibility: 6 or more miles (10+ km)
Ceiling: at least 12,000 feet AGL
Clouds: scattered clouds at 19000 feet AGL
Weather: no significant weather observed at this time

METAR text: EKYT 180550Z AUTO 16005KT 9999 SCT080/// 14/14 Q1003
Conditions at: EKYT (ALBORG , DK) observed 0550 UTC 18 August 2019
Temperature: 14.0°C (57°F)
Dewpoint: 14.0°C (57°F) [RH = 100%]
Pressure (altimeter): 29.62 inches Hg (1003.0 mb)
Winds: from the SSE (160 degrees) at 6 MPH (5 knots; 2.6 m/s)
Visibility: 6 or more miles (10+ km)
Ceiling: at least 12,000 feet AGL
Clouds: scattered clouds at 8000 feet AGL
Weather: no significant weather observed at this time

METAR text: EKYT 180520Z AUTO 16004KT 9999 FEW016/// SCT085/// 14/13 Q1003
Conditions at: EKYT (ALBORG , DK) observed 0520 UTC 18 August 2019
Temperature: 14.0°C (57°F)
Dewpoint: 13.0°C (55°F) [RH = 94%]
Pressure (altimeter): 29.62 inches Hg (1003.0 mb)
Winds: from the SSE (160 degrees) at 5 MPH (4 knots; 2.1 m/s)
Visibility: 6 or more miles (10+ km)
Ceiling: at least 12,000 feet AGL
Clouds: few clouds at 1600 feet AGL
scattered clouds at 8500 feet AGL
Weather: no significant weather observed at this time

METAR text: EKYT 180450Z AUTO 11002KT 1500 BCFG FEW016/// SCT085/// 12/12 Q1003
Conditions at: EKYT (ALBORG , DK) observed 0450 UTC 18 August 2019
Temperature: 12.0°C (54°F)
Dewpoint: 12.0°C (54°F) [RH = 100%]
Pressure (altimeter): 29.62 inches Hg (1003.0 mb)
Winds: from the ESE (110 degrees) at 2 MPH (2 knots; 1.0 m/s)
Visibility: 0.93 miles (1.50 km)
Ceiling: at least 12,000 feet AGL
Clouds: few clouds at 1600 feet AGL
scattered clouds at 8500 feet AGL
Weather: BCFG  (patches of fog)

METAR text: EKYT 180441Z 13001KT 0800 R08/P1500N R26/P1500D MIFG SCT012 SCT085 12/12 Q1003
Conditions at: EKYT (ALBORG , DK) observed 0441 UTC 18 August 2019
Temperature: 12.0°C (54°F)
Dewpoint: 12.0°C (54°F) [RH = 100%]
Pressure (altimeter): 29.62 inches Hg (1003.0 mb)
Winds: from the SE (130 degrees) at 1 MPH (1 knots; 0.5 m/s)
Visibility: 0.50 miles (0.80 km)
Ceiling: at least 12,000 feet AGL
Clouds: scattered clouds at 1200 feet AGL
scattered clouds at 8500 feet AGL
Weather: MIFG  (shallow fog)

METAR text: EKYT 180420Z 17003KT 0300 R08/P1500N R26/1300U MIFG NSC 11/11 Q1003
Conditions at: EKYT (ALBORG , DK) observed 0420 UTC 18 August 2019
Temperature: 11.0°C (52°F)
Dewpoint: 11.0°C (52°F) [RH = 100%]
Pressure (altimeter): 29.62 inches Hg (1003.0 mb)
Winds: from the S (170 degrees) at 3 MPH (3 knots; 1.5 m/s)
Visibility: 0.19 miles (0.31 km)
Ceiling: at least 12,000 feet AGL
Clouds: sky clear below 12,000 feet AGL
Weather: MIFG  (shallow fog)

METAR text: EKYT 180357Z 11003KT 1500 BR NSC 11/11 Q1003
Conditions at: EKYT (ALBORG , DK) observed 0357 UTC 18 August 2019
Temperature: 11.0°C (52°F)
Dewpoint: 11.0°C (52°F) [RH = 100%]
Pressure (altimeter): 29.62 inches Hg (1003.0 mb)
Winds: from the ESE (110 degrees) at 3 MPH (3 knots; 1.5 m/s)
Visibility: 0.93 miles (1.50 km)
Ceiling: at least 12,000 feet AGL
Clouds: sky clear below 12,000 feet AGL
Weather: BR  (mist)

METAR text: EKYT 180354Z 12003KT 1500 BR NSC 12/11 Q1003
Conditions at: EKYT (ALBORG , DK) observed 0354 UTC 18 August 2019
Temperature: 12.0°C (54°F)
Dewpoint: 11.0°C (52°F) [RH = 94%]
Pressure (altimeter): 29.62 inches Hg (1003.0 mb)
Winds: from the ESE (120 degrees) at 3 MPH (3 knots; 1.5 m/s)
Visibility: 0.93 miles (1.50 km)
Ceiling: at least 12,000 feet AGL
Clouds: sky clear below 12,000 feet AGL
Weather: BR  (mist)

METAR text: EKYT 180351Z AUTO 12002KT 2800 BR NCD 12/11 Q1003
Conditions at: EKYT (ALBORG , DK) observed 0351 UTC 18 August 2019
Temperature: 12.0°C (54°F)
Dewpoint: 11.0°C (52°F) [RH = 94%]
Pressure (altimeter): 29.62 inches Hg (1003.0 mb)
Winds: from the ESE (120 degrees) at 2 MPH (2 knots; 1.0 m/s)
Visibility: 1.74 miles (2.80 km)
Ceiling: at least 12,000 feet AGL
Clouds: sky clear below 12,000 feet AGL
Weather: BR  (mist)

METAR text: EKYT 180350Z AUTO 13002KT 3700 BR NCD 12/12 Q1003
Conditions at: EKYT (ALBORG , DK) observed 0350 UTC 18 August 2019
Temperature: 12.0°C (54°F)
Dewpoint: 12.0°C (54°F) [RH = 100%]
Pressure (altimeter): 29.62 inches Hg (1003.0 mb)
Winds: from the SE (130 degrees) at 2 MPH (2 knots; 1.0 m/s)
Visibility: 2.30 miles (3.70 km)
Ceiling: at least 12,000 feet AGL
Clouds: sky clear below 12,000 feet AGL
Weather: BR  (mist)

METAR text: EKYT 180340Z AUTO 15001KT 2800 BR NCD 13/12 Q1003
Conditions at: EKYT (ALBORG , DK) observed 0340 UTC 18 August 2019
Temperature: 13.0°C (55°F)
Dewpoint: 12.0°C (54°F) [RH = 94%]
Pressure (altimeter): 29.62 inches Hg (1003.0 mb)
Winds: from the SSE (150 degrees) at 1 MPH (1 knots; 0.5 m/s)
Visibility: 1.74 miles (2.80 km)
Ceiling: at least 12,000 feet AGL
Clouds: sky clear below 12,000 feet AGL
Weather: BR  (mist)

METAR text: EKYT 180337Z AUTO 15002KT 4800 NCD 13/13 Q1003
Conditions at: EKYT (ALBORG , DK) observed 0337 UTC 18 August 2019
Temperature: 13.0°C (55°F)
Dewpoint: 13.0°C (55°F) [RH = 100%]
Pressure (altimeter): 29.62 inches Hg (1003.0 mb)
Winds: from the SSE (150 degrees) at 2 MPH (2 knots; 1.0 m/s)
Visibility: 2.98 miles (4.80 km)
Ceiling: at least 12,000 feet AGL
Clouds: sky clear below 12,000 feet AGL
Weather: no significant weather observed at this time

METAR text: EKYT 180335Z AUTO 16002KT 6000 NCD 13/13 Q1003
Conditions at: EKYT (ALBORG , DK) observed 0335 UTC 18 August 2019
Temperature: 13.0°C (55°F)
Dewpoint: 13.0°C (55°F) [RH = 100%]
Pressure (altimeter): 29.62 inches Hg (1003.0 mb)
Winds: from the SSE (160 degrees) at 2 MPH (2 knots; 1.0 m/s)
Visibility: 4 miles ( 6 km)
Ceiling: at least 12,000 feet AGL
Clouds: sky clear below 12,000 feet AGL
Weather: no significant weather observed at this time

METAR text: EKYT 180334Z AUTO 16002KT 7000 NCD 13/12 Q1003
Conditions at: EKYT (ALBORG , DK) observed 0334 UTC 18 August 2019
Temperature: 13.0°C (55°F)
Dewpoint: 12.0°C (54°F) [RH = 94%]
Pressure (altimeter): 29.62 inches Hg (1003.0 mb)
Winds: from the SSE (160 degrees) at 2 MPH (2 knots; 1.0 m/s)
Visibility: 4 miles ( 7 km)
Ceiling: at least 12,000 feet AGL
Clouds: sky clear below 12,000 feet AGL
Weather: no significant weather observed at this time

METAR text: EKYT 180320Z AUTO 18004KT 9999 NCD 13/13 Q1003
Conditions at: EKYT (ALBORG , DK) observed 0320 UTC 18 August 2019
Temperature: 13.0°C (55°F)
Dewpoint: 13.0°C (55°F) [RH = 100%]
Pressure (altimeter): 29.62 inches Hg (1003.0 mb)
Winds: from the S (180 degrees) at 5 MPH (4 knots; 2.1 m/s)
Visibility: 6 or more miles (10+ km)
Ceiling: at least 12,000 feet AGL
Clouds: sky clear below 12,000 feet AGL
Weather: no significant weather observed at this time

METAR text: EKYT 180250Z AUTO 19003KT 9999 FEW090/// 13/13 Q1004
Conditions at: EKYT (ALBORG , DK) observed 0250 UTC 18 August 2019
Temperature: 13.0°C (55°F)
Dewpoint: 13.0°C (55°F) [RH = 100%]
Pressure (altimeter): 29.65 inches Hg (1004.0 mb)
Winds: from the S (190 degrees) at 3 MPH (3 knots; 1.5 m/s)
Visibility: 6 or more miles (10+ km)
Ceiling: at least 12,000 feet AGL
Clouds: few clouds at 9000 feet AGL
Weather: no significant weather observed at this time

METAR text: EKYT 180220Z AUTO 18003KT 9999 FEW090/// 12/12 Q1004
Conditions at: EKYT (ALBORG , DK) observed 0220 UTC 18 August 2019
Temperature: 12.0°C (54°F)
Dewpoint: 12.0°C (54°F) [RH = 100%]
Pressure (altimeter): 29.65 inches Hg (1004.0 mb)
Winds: from the S (180 degrees) at 3 MPH (3 knots; 1.5 m/s)
Visibility: 6 or more miles (10+ km)
Ceiling: at least 12,000 feet AGL
Clouds: few clouds at 9000 feet AGL
Weather: no significant weather observed at this time

METAR text: EKYT 180150Z AUTO 19005KT 9999 NCD 13/12 Q1004
Conditions at: EKYT (ALBORG , DK) observed 0150 UTC 18 August 2019
Temperature: 13.0°C (55°F)
Dewpoint: 12.0°C (54°F) [RH = 94%]
Pressure (altimeter): 29.65 inches Hg (1004.0 mb)
Winds: from the S (190 degrees) at 6 MPH (5 knots; 2.6 m/s)
Visibility: 6 or more miles (10+ km)
Ceiling: at least 12,000 feet AGL
Clouds: sky clear below 12,000 feet AGL
Weather: no significant weather observed at this time

METAR text: EKYT 180120Z AUTO 19004KT 9999 FEW090/// 13/12 Q1004
Conditions at: EKYT (ALBORG , DK) observed 0120 UTC 18 August 2019
Temperature: 13.0°C (55°F)
Dewpoint: 12.0°C (54°F) [RH = 94%]
Pressure (altimeter): 29.65 inches Hg (1004.0 mb)
Winds: from the S (190 degrees) at 5 MPH (4 knots; 2.1 m/s)
Visibility: 6 or more miles (10+ km)
Ceiling: at least 12,000 feet AGL
Clouds: few clouds at 9000 feet AGL
Weather: no significant weather observed at this time

METAR text: EKYT 180050Z AUTO 17003KT 9999 FEW060/// 14/13 Q1004
Conditions at: EKYT (ALBORG , DK) observed 0050 UTC 18 August 2019
Temperature: 14.0°C (57°F)
Dewpoint: 13.0°C (55°F) [RH = 94%]
Pressure (altimeter): 29.65 inches Hg (1004.0 mb)
Winds: from the S (170 degrees) at 3 MPH (3 knots; 1.5 m/s)
Visibility: 6 or more miles (10+ km)
Ceiling: at least 12,000 feet AGL
Clouds: few clouds at 6000 feet AGL
Weather: no significant weather observed at this time

METAR text: EKYT 180020Z AUTO 18004KT 9999 FEW090/// 13/13 Q1004
Conditions at: EKYT (ALBORG , DK) observed 0020 UTC 18 August 2019
Temperature: 13.0°C (55°F)
Dewpoint: 13.0°C (55°F) [RH = 100%]
Pressure (altimeter): 29.65 inches Hg (1004.0 mb)
Winds: from the S (180 degrees) at 5 MPH (4 knots; 2.1 m/s)
Visibility: 6 or more miles (10+ km)
Ceiling: at least 12,000 feet AGL
Clouds: few clouds at 9000 feet AGL
Weather: no significant weather observed at this time

METAR text: EKYT 172350Z AUTO 18004KT 9999 SCT090/// BKN210/// 14/13 Q1004
Conditions at: EKYT (ALBORG , DK) observed 2350 UTC 17 August 2019
Temperature: 14.0°C (57°F)
Dewpoint: 13.0°C (55°F) [RH = 94%]
Pressure (altimeter): 29.65 inches Hg (1004.0 mb)
Winds: from the S (180 degrees) at 5 MPH (4 knots; 2.1 m/s)
Visibility: 6 or more miles (10+ km)
Ceiling: 21000 feet AGL
Clouds: scattered clouds at 9000 feet AGL
broken clouds at 21000 feet AGL
Weather: no significant weather observed at this time

METAR text: EKYT 172320Z AUTO 20007KT 9999 SCT090/// 14/13 Q1004
Conditions at: EKYT (ALBORG , DK) observed 2320 UTC 17 August 2019
Temperature: 14.0°C (57°F)
Dewpoint: 13.0°C (55°F) [RH = 94%]
Pressure (altimeter): 29.65 inches Hg (1004.0 mb)
Winds: from the SSW (200 degrees) at 8 MPH (7 knots; 3.6 m/s)
Visibility: 6 or more miles (10+ km)
Ceiling: at least 12,000 feet AGL
Clouds: scattered clouds at 9000 feet AGL
Weather: no significant weather observed at this time

METAR text: EKYT 172250Z AUTO 18006KT 9999 SCT090/// 14/13 Q1004
Conditions at: EKYT (ALBORG , DK) observed 2250 UTC 17 August 2019
Temperature: 14.0°C (57°F)
Dewpoint: 13.0°C (55°F) [RH = 94%]
Pressure (altimeter): 29.65 inches Hg (1004.0 mb)
Winds: from the S (180 degrees) at 7 MPH (6 knots; 3.1 m/s)
Visibility: 6 or more miles (10+ km)
Ceiling: at least 12,000 feet AGL
Clouds: scattered clouds at 9000 feet AGL
Weather: no significant weather observed at this time

METAR text: EKYT 172220Z AUTO 18006KT 9999 NCD 13/13 Q1003
Conditions at: EKYT (ALBORG , DK) observed 2220 UTC 17 August 2019
Temperature: 13.0°C (55°F)
Dewpoint: 13.0°C (55°F) [RH = 100%]
Pressure (altimeter): 29.62 inches Hg (1003.0 mb)
Winds: from the S (180 degrees) at 7 MPH (6 knots; 3.1 m/s)
Visibility: 6 or more miles (10+ km)
Ceiling: at least 12,000 feet AGL
Clouds: sky clear below 12,000 feet AGL
Weather: no significant weather observed at this time

METAR text: EKYT 172150Z AUTO 20006KT 9999 NCD 14/13 Q1003
Conditions at: EKYT (ALBORG , DK) observed 2150 UTC 17 August 2019
Temperature: 14.0°C (57°F)
Dewpoint: 13.0°C (55°F) [RH = 94%]
Pressure (altimeter): 29.62 inches Hg (1003.0 mb)
Winds: from the SSW (200 degrees) at 7 MPH (6 knots; 3.1 m/s)
Visibility: 6 or more miles (10+ km)
Ceiling: at least 12,000 feet AGL
Clouds: sky clear below 12,000 feet AGL
Weather: no significant weather observed at this time

METAR text: EKYT 172120Z AUTO 19005KT 9999 SCT220/// 14/13 Q1003
Conditions at: EKYT (ALBORG , DK) observed 2120 UTC 17 August 2019
Temperature: 14.0°C (57°F)
Dewpoint: 13.0°C (55°F) [RH = 94%]
Pressure (altimeter): 29.62 inches Hg (1003.0 mb)
Winds: from the S (190 degrees) at 6 MPH (5 knots; 2.6 m/s)
Visibility: 6 or more miles (10+ km)
Ceiling: at least 12,000 feet AGL
Clouds: scattered clouds at 22000 feet AGL
Weather: no significant weather observed at this time

METAR text: EKYT 172050Z AUTO 20006KT 9999 FEW220/// 15/13 Q1003
Conditions at: EKYT (ALBORG , DK) observed 2050 UTC 17 August 2019
Temperature: 15.0°C (59°F)
Dewpoint: 13.0°C (55°F) [RH = 88%]
Pressure (altimeter): 29.62 inches Hg (1003.0 mb)
Winds: from the SSW (200 degrees) at 7 MPH (6 knots; 3.1 m/s)
Visibility: 6 or more miles (10+ km)
Ceiling: at least 12,000 feet AGL
Clouds: few clouds at 22000 feet AGL
Weather: no significant weather observed at this time

METAR text: EKYT 172020Z AUTO 21006KT 9999 SCT210/// 15/13 Q1003
Conditions at: EKYT (ALBORG , DK) observed 2020 UTC 17 August 2019
Temperature: 15.0°C (59°F)
Dewpoint: 13.0°C (55°F) [RH = 88%]
Pressure (altimeter): 29.62 inches Hg (1003.0 mb)
Winds: from the SSW (210 degrees) at 7 MPH (6 knots; 3.1 m/s)
Visibility: 6 or more miles (10+ km)
Ceiling: at least 12,000 feet AGL
Clouds: scattered clouds at 21000 feet AGL
Weather: no significant weather observed at this time

METAR text: EKYT 171950Z AUTO 20006KT 9999 FEW240/// 15/13 Q1003
Conditions at: EKYT (ALBORG , DK) observed 1950 UTC 17 August 2019
Temperature: 15.0°C (59°F)
Dewpoint: 13.0°C (55°F) [RH = 88%]
Pressure (altimeter): 29.62 inches Hg (1003.0 mb)
Winds: from the SSW (200 degrees) at 7 MPH (6 knots; 3.1 m/s)
Visibility: 6 or more miles (10+ km)
Ceiling: at least 12,000 feet AGL
Clouds: few clouds at 24000 feet AGL
Weather: no significant weather observed at this time

METAR text: EKYT 171920Z AUTO 22008KT 9999 SCT240/// 16/14 Q1003
Conditions at: EKYT (ALBORG , DK) observed 1920 UTC 17 August 2019
Temperature: 16.0°C (61°F)
Dewpoint: 14.0°C (57°F) [RH = 88%]
Pressure (altimeter): 29.62 inches Hg (1003.0 mb)
Winds: from the SW (220 degrees) at 9 MPH (8 knots; 4.1 m/s)
Visibility: 6 or more miles (10+ km)
Ceiling: at least 12,000 feet AGL
Clouds: scattered clouds at 24000 feet AGL
Weather: no significant weather observed at this time

METAR text: EKYT 171850Z AUTO 23011KT 9999 FEW240/// 17/14 Q1003
Conditions at: EKYT (ALBORG , DK) observed 1850 UTC 17 August 2019
Temperature: 17.0°C (63°F)
Dewpoint: 14.0°C (57°F) [RH = 82%]
Pressure (altimeter): 29.62 inches Hg (1003.0 mb)
Winds: from the SW (230 degrees) at 13 MPH (11 knots; 5.7 m/s)
Visibility: 6 or more miles (10+ km)
Ceiling: at least 12,000 feet AGL
Clouds: few clouds at 24000 feet AGL
Weather: no significant weather observed at this time

METAR text: EKYT 171820Z AUTO 25013KT 9999 NCD 18/14 Q1002
Conditions at: EKYT (ALBORG , DK) observed 1820 UTC 17 August 2019
Temperature: 18.0°C (64°F)
Dewpoint: 14.0°C (57°F) [RH = 77%]
Pressure (altimeter): 29.59 inches Hg (1002.0 mb)
Winds: from the WSW (250 degrees) at 15 MPH (13 knots; 6.7 m/s)
Visibility: 6 or more miles (10+ km)
Ceiling: at least 12,000 feet AGL
Clouds: sky clear below 12,000 feet AGL
Weather: no significant weather observed at this time

METAR text: EKYT 171750Z AUTO 24012KT 9999 FEW031/// 18/14 Q1002
Conditions at: EKYT (ALBORG , DK) observed 1750 UTC 17 August 2019
Temperature: 18.0°C (64°F)
Dewpoint: 14.0°C (57°F) [RH = 77%]
Pressure (altimeter): 29.59 inches Hg (1002.0 mb)
Winds: from the WSW (240 degrees) at 14 MPH (12 knots; 6.2 m/s)
Visibility: 6 or more miles (10+ km)
Ceiling: at least 12,000 feet AGL
Clouds: few clouds at 3100 feet AGL
Weather: no significant weather observed at this time

METAR text: EKYT 171720Z AUTO 25015KT 9999 FEW028/// 19/14 Q1002
Conditions at: EKYT (ALBORG , DK) observed 1720 UTC 17 August 2019
Temperature: 19.0°C (66°F)
Dewpoint: 14.0°C (57°F) [RH = 73%]
Pressure (altimeter): 29.59 inches Hg (1002.0 mb)
Winds: from the WSW (250 degrees) at 17 MPH (15 knots; 7.7 m/s)
Visibility: 6 or more miles (10+ km)
Ceiling: at least 12,000 feet AGL
Clouds: few clouds at 2800 feet AGL
Weather: no significant weather observed at this time

METAR text: EKYT 171650Z AUTO 25017KT 9999 FEW028/// 19/14 Q1002
Conditions at: EKYT (ALBORG , DK) observed 1650 UTC 17 August 2019
Temperature: 19.0°C (66°F)
Dewpoint: 14.0°C (57°F) [RH = 73%]
Pressure (altimeter): 29.59 inches Hg (1002.0 mb)
Winds: from the WSW (250 degrees) at 20 MPH (17 knots; 8.7 m/s)
Visibility: 6 or more miles (10+ km)
Ceiling: at least 12,000 feet AGL
Clouds: few clouds at 2800 feet AGL
Weather: no significant weather observed at this time

METAR text: EKYT 171620Z AUTO 24017KT 9999 FEW038/// 20/15 Q1002
Conditions at: EKYT (ALBORG , DK) observed 1620 UTC 17 August 2019
Temperature: 20.0°C (68°F)
Dewpoint: 15.0°C (59°F) [RH = 73%]
Pressure (altimeter): 29.59 inches Hg (1002.0 mb)
Winds: from the WSW (240 degrees) at 20 MPH (17 knots; 8.7 m/s)
Visibility: 6 or more miles (10+ km)
Ceiling: at least 12,000 feet AGL
Clouds: few clouds at 3800 feet AGL
Weather: no significant weather observed at this time

Forecast for: EKYT (ALBORG , DK)
Text: TAF EKYT 190216Z 1903/2003 21008KT 9999 SCT025
Forecast period: 0300 UTC 19 August 2019 to 0300 UTC 20 August 2019
Forecast type: FROM: standard forecast or significant change
Winds: from the SSW (210 degrees) at 9 MPH (8 knots; 4.1 m/s)
Visibility: 6 or more miles 10+ km)
Ceiling: at least 12,000 feet AGL
Clouds: scattered clouds at 2500 feet AGL
Weather: no significant weather forecast for this period
Text: TEMPO 1908/2003 23015G25KT 4000 SHRA SCT012 BKN020CB
Forecast period: 0800 UTC 19 August 2019 to 0300 UTC 20 August 2019
Forecast type: TEMPORARY: The following changes expected for less than half the time period
Winds: from the SW (230 degrees) at 17 MPH (15 knots; 7.7 m/s)
gusting to 29 MPH (25 knots; 12.9 m/s)
Visibility: 2.49 miles (4.01 km)
Ceiling: 2000 feet AGL
Clouds: scattered clouds at 1200 feet AGL
broken clouds at 2000 feet AGL
Weather: SHRA  (rain showers)
Text: PROB40 1908/2003 TSRA
Forecast period: 0800 UTC 19 August 2019 to 0300 UTC 20 August 2019
Forecast type: PROBABLE: 40 percent likelihood of the following during this time
Visibility: missing
Ceiling: unknown
Clouds: missing
Weather: TSRA  (rain associated with thunderstorm(s))